Time;durP1;ratioP1;P1;durP2;ratioP2;P2;SDS_P1;SDS_P2;PMS_P1;PMS_P2;Temp;Humidity;BMP_temperature;BMP_pressure;BME280_temperature;BME280_humidity;BME280_pressure;Samples;Min_cycle;Max_cycle;Signal;HPM_P1;HPM_P2
2023/12/14 00:01:57;;;;;;;;;;;6.20;99.90;;;;;;5022567;28;19916;-76
2023/12/14 00:04:43;;;;;;;;;;;6.00;99.90;;;;;;5032871;28;20240;-76
2023/12/14 00:07:29;;;;;;;;;;;6.00;99.90;;;;;;5013998;28;20265;-76
2023/12/14 00:10:17;;;;;;;;;;;6.00;99.90;;;;;;5004199;28;20008;-76
2023/12/14 00:13:04;;;;;;;;;;;6.00;99.90;;;;;;5017075;28;19975;-76
2023/12/14 00:15:50;;;;;;;;;;;6.00;99.90;;;;;;5037377;28;20376;-77
2023/12/14 00:18:36;;;;;;;;;;;5.90;99.90;;;;;;5017358;28;19909;-76
2023/12/14 00:21:22;;;;;;;;;;;5.80;99.90;;;;;;5014548;28;20326;-76
2023/12/14 00:24:08;;;;;;;;;;;5.80;99.90;;;;;;5019901;28;19916;-76
2023/12/14 00:26:54;;;;;;;;;;;5.90;99.90;;;;;;5022516;28;20382;-77
2023/12/14 00:29:40;;;;;;;;;;;5.80;99.90;;;;;;5023879;28;20019;-76
2023/12/14 00:32:27;;;;;;;;;;;5.70;99.90;;;;;;5025311;28;19909;-76
2023/12/14 00:35:13;;;;;;;;;;;5.70;99.90;;;;;;5008073;28;19952;-76
2023/12/14 00:37:58;;;;;;;;;;;5.80;99.90;;;;;;5036200;28;19913;-76
2023/12/14 00:40:44;;;;;;;;;;;5.70;99.90;;;;;;5018927;28;20316;-76
2023/12/14 00:43:30;;;;;;;;;;;5.80;99.90;;;;;;5005606;28;20330;-76
2023/12/14 00:46:16;;;;;;;;;;;5.70;99.90;;;;;;5022032;28;19908;-76
2023/12/14 00:49:02;;;;;;;;;;;5.70;99.90;;;;;;5035672;28;20393;-76
2023/12/14 00:51:49;;;;;;;;;;;5.70;99.90;;;;;;5035405;28;20300;-76
2023/12/14 00:54:35;;;;;;;;;;;5.70;99.90;;;;;;5005104;28;19913;-76
2023/12/14 00:57:22;;;;;;;;;;;5.70;99.90;;;;;;5035065;28;19909;-76
2023/12/14 01:00:10;;;;;;;;;;;5.60;99.90;;;;;;5014570;28;19992;-76
2023/12/14 01:02:56;;;;;;;;;;;5.60;99.90;;;;;;5026550;28;19909;-76
2023/12/14 01:05:42;;;;;;;;;;;5.70;99.90;;;;;;5001313;28;20001;-76
2023/12/14 01:08:29;;;;;;;;;;;5.70;99.90;;;;;;4996619;28;19914;-76
2023/12/14 01:11:16;;;;;;;;;;;5.70;99.90;;;;;;5013133;28;19913;-76
2023/12/14 01:14:04;;;;;;;;;;;5.70;99.90;;;;;;5002796;28;19913;-76
2023/12/14 01:16:50;;;;;;;;;;;5.70;99.90;;;;;;4998556;28;19918;-76
2023/12/14 01:19:39;;;;;;;;;;;5.70;99.90;;;;;;5015715;28;19910;-76
2023/12/14 01:22:25;;;;;;;;;;;5.70;99.90;;;;;;5008828;28;20635;-76
2023/12/14 01:25:11;;;;;;;;;;;5.70;99.90;;;;;;5010475;28;20639;-76
2023/12/14 01:27:57;;;;;;;;;;;5.80;99.90;;;;;;4999639;28;20607;-76
2023/12/14 01:30:43;;;;;;;;;;;5.80;99.90;;;;;;5002915;28;19917;-76
2023/12/14 01:33:30;;;;;;;;;;;5.80;99.90;;;;;;5008934;28;20000;-77
2023/12/14 01:36:21;;;;;;;;;;;5.80;99.90;;;;;;5007673;28;20338;-76
2023/12/14 01:39:07;;;;;;;;;;;5.70;99.90;;;;;;5013842;28;19909;-76
2023/12/14 01:41:53;;;;;;;;;;;5.70;99.90;;;;;;5014743;28;20269;-76
2023/12/14 01:44:39;;;;;;;;;;;5.70;99.90;;;;;;5002343;28;20356;-76
2023/12/14 01:47:25;;;;;;;;;;;5.70;99.90;;;;;;5015426;28;20277;-76
2023/12/14 01:50:11;;;;;;;;;;;5.70;99.90;;;;;;5030036;28;20318;-76
2023/12/14 01:52:57;;;;;;;;;;;5.50;99.90;;;;;;5015086;28;19999;-76
2023/12/14 01:55:43;;;;;;;;;;;5.50;99.90;;;;;;5008708;28;20610;-76
2023/12/14 01:58:32;;;;;;;;;;;5.60;99.90;;;;;;5011645;28;19988;-76
2023/12/14 02:01:41;;;;;;;;;;;5.50;99.90;;;;;;5033548;28;19925;-76
2023/12/14 02:04:28;;;;;;;;;;;5.50;99.90;;;;;;5048107;28;19956;-76
2023/12/14 02:07:14;;;;;;;;;;;5.50;99.90;;;;;;5021462;28;19923;-76
2023/12/14 02:10:00;;;;;;;;;;;5.50;99.90;;;;;;5014268;28;19916;-76
2023/12/14 02:12:46;;;;;;;;;;;5.50;99.90;;;;;;5002794;28;19910;-76
2023/12/14 02:15:32;;;;;;;;;;;5.50;99.90;;;;;;5005833;28;19984;-76
2023/12/14 02:18:19;;;;;;;;;;;5.50;99.90;;;;;;5014392;28;19909;-76
2023/12/14 02:21:05;;;;;;;;;;;5.50;99.90;;;;;;5033595;28;19908;-76
2023/12/14 02:23:51;;;;;;;;;;;5.40;99.90;;;;;;5019757;28;19909;-76
2023/12/14 02:26:37;;;;;;;;;;;5.40;99.90;;;;;;5023757;28;19909;-76
2023/12/14 02:29:23;;;;;;;;;;;5.40;99.90;;;;;;5035475;28;20699;-77
2023/12/14 02:32:09;;;;;;;;;;;5.40;99.90;;;;;;5012865;28;19909;-76
2023/12/14 02:34:55;;;;;;;;;;;5.40;99.90;;;;;;5005744;28;19921;-76
2023/12/14 02:37:41;;;;;;;;;;;5.40;99.90;;;;;;5009869;28;19909;-76
2023/12/14 02:40:27;;;;;;;;;;;5.40;99.90;;;;;;5004497;28;20270;-76
2023/12/14 02:43:13;;;;;;;;;;;5.30;99.90;;;;;;5032188;28;20368;-76
2023/12/14 02:46:02;;;;;;;;;;;5.30;99.90;;;;;;5030171;28;19940;-76
2023/12/14 02:48:47;;;;;;;;;;;5.30;99.90;;;;;;5007276;28;19962;-76
2023/12/14 02:51:33;;;;;;;;;;;5.30;99.90;;;;;;5021403;28;19913;-76
2023/12/14 02:54:19;;;;;;;;;;;5.30;99.90;;;;;;5033949;28;19924;-76
2023/12/14 02:57:05;;;;;;;;;;;5.30;99.90;;;;;;5006251;28;19909;-76
2023/12/14 02:59:51;;;;;;;;;;;5.30;99.90;;;;;;5034389;28;19956;-76
2023/12/14 03:02:37;;;;;;;;;;;5.30;99.90;;;;;;5048507;28;19913;-76
2023/12/14 03:05:23;;;;;;;;;;;5.30;99.90;;;;;;4990279;28;19943;-76
2023/12/14 03:08:09;;;;;;;;;;;5.30;99.90;;;;;;5033663;28;19916;-76
2023/12/14 03:10:55;;;;;;;;;;;5.30;99.90;;;;;;5019819;28;19913;-76
2023/12/14 03:13:41;;;;;;;;;;;5.30;99.90;;;;;;5020479;28;19924;-76
2023/12/14 03:16:28;;;;;;;;;;;5.30;99.90;;;;;;5029984;28;19916;-76
2023/12/14 03:19:15;;;;;;;;;;;5.30;99.90;;;;;;5035351;28;20227;-76
2023/12/14 03:22:01;;;;;;;;;;;5.30;99.90;;;;;;5011423;28;19920;-76
2023/12/14 03:24:47;;;;;;;;;;;5.30;99.90;;;;;;5029502;28;19916;-76
2023/12/14 03:27:33;;;;;;;;;;;5.30;99.90;;;;;;5027893;28;19948;-75
2023/12/14 03:30:19;;;;;;;;;;;5.30;99.90;;;;;;5022902;28;19909;-76
2023/12/14 03:33:07;;;;;;;;;;;5.30;99.90;;;;;;5024184;28;19909;-76
2023/12/14 03:35:52;;;;;;;;;;;5.20;99.90;;;;;;5021659;28;19909;-76
2023/12/14 03:38:38;;;;;;;;;;;5.20;99.90;;;;;;5031251;28;19939;-76
2023/12/14 03:41:24;;;;;;;;;;;5.20;99.90;;;;;;5023468;28;20329;-76
2023/12/14 03:44:10;;;;;;;;;;;5.20;99.90;;;;;;5024411;28;19913;-76
2023/12/14 03:46:57;;;;;;;;;;;5.20;99.90;;;;;;5007051;28;19910;-76
2023/12/14 03:49:43;;;;;;;;;;;5.20;99.90;;;;;;5018557;28;20642;-76
2023/12/14 03:52:31;;;;;;;;;;;5.20;99.90;;;;;;5023662;28;19920;-76
2023/12/14 03:55:17;;;;;;;;;;;5.10;99.90;;;;;;5035324;28;20292;-77
2023/12/14 03:58:03;;;;;;;;;;;5.10;99.90;;;;;;5018659;28;19994;-76
2023/12/14 04:00:48;;;;;;;;;;;5.10;99.90;;;;;;5029915;28;19917;-76
2023/12/14 04:03:34;;;;;;;;;;;5.20;99.90;;;;;;5020211;28;19909;-76
2023/12/14 04:06:20;;;;;;;;;;;5.20;99.90;;;;;;4991086;28;19909;-76
2023/12/14 04:09:06;;;;;;;;;;;5.10;99.90;;;;;;5018648;28;19916;-76
2023/12/14 04:11:53;;;;;;;;;;;5.20;99.90;;;;;;5009535;28;20270;-76
2023/12/14 04:14:39;;;;;;;;;;;5.20;99.90;;;;;;5033328;28;19913;-76
2023/12/14 04:17:25;;;;;;;;;;;5.10;99.90;;;;;;5018457;28;19963;-76
2023/12/14 04:20:12;;;;;;;;;;;5.10;99.90;;;;;;5022452;28;19939;-76
2023/12/14 04:22:58;;;;;;;;;;;5.10;99.90;;;;;;5031018;28;19932;-76
2023/12/14 04:25:44;;;;;;;;;;;5.10;99.90;;;;;;5022740;28;20004;-76
2023/12/14 04:28:30;;;;;;;;;;;5.10;99.90;;;;;;5022341;28;20246;-76
2023/12/14 04:31:16;;;;;;;;;;;5.10;99.90;;;;;;5023762;28;20237;-77
2023/12/14 04:34:02;;;;;;;;;;;5.10;99.90;;;;;;5016893;28;20082;-76
2023/12/14 04:36:48;;;;;;;;;;;5.10;99.90;;;;;;5032918;28;19944;-76
2023/12/14 04:39:34;;;;;;;;;;;5.10;99.90;;;;;;5010754;28;19920;-76
2023/12/14 04:42:19;;;;;;;;;;;5.10;99.90;;;;;;5024025;28;19909;-76
2023/12/14 04:45:06;;;;;;;;;;;5.10;99.90;;;;;;5022713;28;19913;-76
2023/12/14 04:47:52;;;;;;;;;;;5.10;99.90;;;;;;5023402;28;19921;-76
2023/12/14 04:50:37;;;;;;;;;;;5.10;99.90;;;;;;5036525;28;19909;-76
2023/12/14 04:53:23;;;;;;;;;;;5.10;99.90;;;;;;5040934;28;19952;-76
2023/12/14 04:56:10;;;;;;;;;;;5.00;99.90;;;;;;5015665;28;19940;-77
2023/12/14 04:58:56;;;;;;;;;;;5.00;99.90;;;;;;5023394;28;19912;-76
2023/12/14 05:01:42;;;;;;;;;;;5.10;99.90;;;;;;5026380;28;20327;-76
2023/12/14 05:04:28;;;;;;;;;;;5.10;99.90;;;;;;4998453;28;19909;-76
2023/12/14 05:07:15;;;;;;;;;;;5.00;99.90;;;;;;4981291;28;19991;-76
2023/12/14 05:10:02;;;;;;;;;;;5.00;99.90;;;;;;5000723;28;19964;-76
2023/12/14 05:12:48;;;;;;;;;;;5.10;99.90;;;;;;4990488;28;19909;-76
2023/12/14 05:15:35;;;;;;;;;;;5.10;99.90;;;;;;4991834;28;19928;-76
2023/12/14 05:18:21;;;;;;;;;;;5.00;99.90;;;;;;4999544;28;20249;-76
2023/12/14 05:21:07;;;;;;;;;;;5.00;99.90;;;;;;4984180;28;19930;-76
2023/12/14 05:23:53;;;;;;;;;;;5.00;99.90;;;;;;5004984;28;19924;-76
2023/12/14 05:26:39;;;;;;;;;;;5.00;99.90;;;;;;5016868;28;19909;-77
2023/12/14 05:29:25;;;;;;;;;;;5.00;99.90;;;;;;5008491;28;19924;-76
2023/12/14 05:32:11;;;;;;;;;;;5.00;99.90;;;;;;4983050;28;20303;-76
2023/12/14 05:34:57;;;;;;;;;;;5.00;99.90;;;;;;4998240;28;19913;-76
2023/12/14 05:37:43;;;;;;;;;;;4.90;99.90;;;;;;5002278;28;19909;-76
2023/12/14 05:40:29;;;;;;;;;;;5.00;99.90;;;;;;5002218;28;19967;-76
2023/12/14 05:43:14;;;;;;;;;;;5.00;99.90;;;;;;4973842;28;19916;-76
2023/12/14 05:46:00;;;;;;;;;;;5.00;99.90;;;;;;5000884;28;19909;-76
2023/12/14 05:48:46;;;;;;;;;;;5.00;99.90;;;;;;5016948;28;19940;-76
2023/12/14 05:51:32;;;;;;;;;;;5.00;99.90;;;;;;5015902;28;19913;-76
2023/12/14 05:54:18;;;;;;;;;;;4.90;99.90;;;;;;5014611;28;19913;-76
2023/12/14 05:57:04;;;;;;;;;;;4.80;99.90;;;;;;5003744;28;19909;-76
2023/12/14 05:59:51;;;;;;;;;;;4.80;99.90;;;;;;5007398;28;19917;-76
2023/12/14 06:02:38;;;;;;;;;;;4.80;99.90;;;;;;5026403;28;20361;-77
2023/12/14 06:05:23;;;;;;;;;;;4.80;99.90;;;;;;5015750;28;19925;-77
2023/12/14 06:08:09;;;;;;;;;;;4.90;99.90;;;;;;5018216;28;20322;-77
2023/12/14 06:10:55;;;;;;;;;;;4.90;99.90;;;;;;5021506;28;20229;-76
2023/12/14 06:13:41;;;;;;;;;;;4.90;99.90;;;;;;5036269;28;19913;-76
2023/12/14 06:16:27;;;;;;;;;;;4.90;99.90;;;;;;5019028;28;19909;-76
2023/12/14 06:19:14;;;;;;;;;;;4.80;99.90;;;;;;4989114;28;20007;-76
2023/12/14 06:22:00;;;;;;;;;;;4.90;99.90;;;;;;5015660;28;19949;-76
2023/12/14 06:24:47;;;;;;;;;;;4.90;99.90;;;;;;5002611;28;19913;-76
2023/12/14 06:27:33;;;;;;;;;;;4.90;99.90;;;;;;5001264;28;19913;-76
2023/12/14 06:30:19;;;;;;;;;;;4.90;99.90;;;;;;5000951;28;19913;-76
2023/12/14 06:33:05;;;;;;;;;;;4.90;99.90;;;;;;5000214;28;19917;-77
2023/12/14 06:35:51;;;;;;;;;;;4.90;99.90;;;;;;5001144;28;19909;-76
2023/12/14 06:38:40;;;;;;;;;;;4.90;99.90;;;;;;5001777;28;19909;-76
2023/12/14 06:41:27;;;;;;;;;;;4.90;99.90;;;;;;5002177;28;20266;-75
2023/12/14 06:44:13;;;;;;;;;;;4.80;99.90;;;;;;5000560;28;20246;-76
2023/12/14 06:46:59;;;;;;;;;;;4.80;99.90;;;;;;5013810;28;19919;-76
2023/12/14 06:49:45;;;;;;;;;;;4.80;99.90;;;;;;5014252;28;20546;-76
2023/12/14 06:52:31;;;;;;;;;;;4.80;99.90;;;;;;5008082;28;20408;-76
2023/12/14 06:55:17;;;;;;;;;;;4.80;99.90;;;;;;5020327;28;19913;-76
2023/12/14 06:58:08;;;;;;;;;;;4.80;99.90;;;;;;5032437;28;19935;-77
2023/12/14 07:00:54;;;;;;;;;;;4.80;99.90;;;;;;5030836;28;19917;-77
2023/12/14 07:03:41;;;;;;;;;;;4.80;99.90;;;;;;5024314;28;19909;-77
2023/12/14 07:06:27;;;;;;;;;;;4.80;99.90;;;;;;5013593;28;19940;-76
2023/12/14 07:09:13;;;;;;;;;;;4.80;99.90;;;;;;5022861;28;19931;-76
2023/12/14 07:12:02;;;;;;;;;;;4.80;99.90;;;;;;5038072;28;19963;-76
2023/12/14 07:14:48;;;;;;;;;;;4.80;99.90;;;;;;5037435;28;19928;-77
2023/12/14 07:17:34;;;;;;;;;;;4.70;99.90;;;;;;5025377;28;20329;-76
2023/12/14 07:20:21;;;;;;;;;;;4.70;99.90;;;;;;5020076;28;20396;-76
2023/12/14 07:23:07;;;;;;;;;;;4.80;99.90;;;;;;4996227;28;19963;-76
2023/12/14 07:25:54;;;;;;;;;;;4.80;99.90;;;;;;5021396;28;19920;-76
2023/12/14 07:28:40;;;;;;;;;;;4.80;99.90;;;;;;5023898;28;20440;-76
2023/12/14 07:31:28;;;;;;;;;;;4.80;99.90;;;;;;5038372;28;20268;-76
2023/12/14 07:34:14;;;;;;;;;;;4.70;99.90;;;;;;5023293;28;20215;-76
2023/12/14 07:37:00;;;;;;;;;;;4.80;99.90;;;;;;5023448;28;20280;-76
2023/12/14 07:39:46;;;;;;;;;;;4.80;99.90;;;;;;5023690;28;19963;-76
2023/12/14 07:42:32;;;;;;;;;;;4.80;99.90;;;;;;5037556;28;20284;-76
2023/12/14 07:45:18;;;;;;;;;;;4.80;99.90;;;;;;5038826;28;19913;-76
2023/12/14 07:48:05;;;;;;;;;;;4.90;99.90;;;;;;5037582;28;20333;-76
2023/12/14 07:50:52;;;;;;;;;;;4.80;99.90;;;;;;5023670;28;20369;-76
2023/12/14 07:53:38;;;;;;;;;;;4.80;99.90;;;;;;5023737;28;19916;-76
2023/12/14 07:56:27;;;;;;;;;;;4.80;99.90;;;;;;5036752;28;19913;-76
2023/12/14 07:59:13;;;;;;;;;;;4.80;99.90;;;;;;5022670;28;19912;-76
2023/12/14 08:01:59;;;;;;;;;;;4.80;99.90;;;;;;5028017;28;19928;-75
2023/12/14 08:04:45;;;;;;;;;;;4.80;99.90;;;;;;5020741;28;19909;-74
2023/12/14 08:07:31;;;;;;;;;;;4.90;99.90;;;;;;5012592;28;19920;-75
2023/12/14 08:10:17;;;;;;;;;;;4.90;99.90;;;;;;5001331;28;19913;-75
2023/12/14 08:13:03;;;;;;;;;;;4.90;99.90;;;;;;5023093;28;20347;-75
2023/12/14 08:15:49;;;;;;;;;;;5.00;99.90;;;;;;5025574;28;19920;-75
2023/12/14 08:18:35;;;;;;;;;;;5.00;99.90;;;;;;5024827;28;19909;-75
2023/12/14 08:21:21;;;;;;;;;;;5.00;99.90;;;;;;5036068;28;20480;-75
2023/12/14 08:24:07;;;;;;;;;;;5.00;99.90;;;;;;5008627;28;19936;-75
2023/12/14 08:26:53;;;;;;;;;;;5.00;99.90;;;;;;5005230;28;19941;-75
2023/12/14 08:29:39;;;;;;;;;;;5.00;99.90;;;;;;5007695;28;19913;-75
2023/12/14 08:32:25;;;;;;;;;;;5.00;99.90;;;;;;5024148;28;19987;-75
2023/12/14 08:35:11;;;;;;;;;;;5.10;99.90;;;;;;5023509;28;19917;-75
2023/12/14 08:37:57;;;;;;;;;;;5.10;99.90;;;;;;5025783;28;19909;-75
2023/12/14 08:40:43;;;;;;;;;;;5.20;99.90;;;;;;5002887;28;19921;-75
2023/12/14 08:43:28;;;;;;;;;;;5.20;99.90;;;;;;5021416;28;19909;-75
2023/12/14 08:46:14;;;;;;;;;;;5.20;99.90;;;;;;5036423;28;20023;-75
2023/12/14 08:49:01;;;;;;;;;;;5.20;99.90;;;;;;5037579;28;19909;-76
2023/12/14 08:51:47;;;;;;;;;;;5.30;99.90;;;;;;5038260;28;19921;-75
2023/12/14 08:54:33;;;;;;;;;;;5.30;99.90;;;;;;5011661;28;19921;-76
2023/12/14 08:57:19;;;;;;;;;;;5.30;99.90;;;;;;5006296;28;19912;-75
2023/12/14 09:00:06;;;;;;;;;;;5.30;99.90;;;;;;5008631;28;20009;-75
2023/12/14 09:02:52;;;;;;;;;;;5.30;99.90;;;;;;5013973;28;19920;-74
2023/12/14 09:05:41;;;;;;;;;;;5.30;99.90;;;;;;5005336;28;19909;-76
2023/12/14 09:08:27;;;;;;;;;;;5.40;99.90;;;;;;5011357;28;19925;-75
2023/12/14 09:11:15;;;;;;;;;;;5.30;99.90;;;;;;4997125;28;19913;-74
2023/12/14 09:14:02;;;;;;;;;;;5.30;99.90;;;;;;5001162;28;19924;-75
2023/12/14 09:16:48;;;;;;;;;;;5.30;99.90;;;;;;5015345;28;19972;-75
2023/12/14 09:19:34;;;;;;;;;;;5.30;99.90;;;;;;5002086;28;20004;-75
2023/12/14 09:22:20;;;;;;;;;;;5.30;99.90;;;;;;5014630;28;19909;-75
2023/12/14 09:25:06;;;;;;;;;;;5.40;99.90;;;;;;5008760;28;19910;-75
2023/12/14 09:27:53;;;;;;;;;;;5.40;99.90;;;;;;5010762;28;19921;-75
2023/12/14 09:30:39;;;;;;;;;;;5.40;99.90;;;;;;5024594;28;19913;-75
2023/12/14 09:33:25;;;;;;;;;;;5.50;99.90;;;;;;5028496;28;19929;-75
2023/12/14 09:36:11;;;;;;;;;;;5.50;99.90;;;;;;5015422;28;19924;-75
2023/12/14 09:38:57;;;;;;;;;;;5.50;99.90;;;;;;5007313;28;20377;-76
2023/12/14 09:41:43;;;;;;;;;;;5.60;99.90;;;;;;5001513;28;20250;-75
2023/12/14 09:44:29;;;;;;;;;;;5.70;99.90;;;;;;5010074;28;20534;-74
2023/12/14 09:47:15;;;;;;;;;;;5.70;99.90;;;;;;5028120;28;20401;-75
2023/12/14 09:50:03;;;;;;;;;;;5.80;99.90;;;;;;5012058;28;20238;-76
2023/12/14 09:52:49;;;;;;;;;;;5.80;99.90;;;;;;5014662;28;19920;-76
2023/12/14 09:55:35;;;;;;;;;;;5.60;99.90;;;;;;5016720;28;19990;-76
2023/12/14 09:58:21;;;;;;;;;;;5.40;99.90;;;;;;5011006;28;19921;-76
2023/12/14 10:01:24;;;;;;;;;;;5.30;99.90;;;;;;5029070;28;20238;-76
2023/12/14 10:04:11;;;;;;;;;;;5.20;99.90;;;;;;5016621;28;19913;-76
2023/12/14 10:06:57;;;;;;;;;;;5.30;99.90;;;;;;5002415;28;19920;-76
2023/12/14 10:09:43;;;;;;;;;;;5.30;99.90;;;;;;5032721;28;20303;-76
2023/12/14 10:12:29;;;;;;;;;;;5.20;99.90;;;;;;5021820;28;19955;-76
2023/12/14 10:15:14;;;;;;;;;;;5.10;99.90;;;;;;5021654;28;19978;-76
2023/12/14 10:18:01;;;;;;;;;;;5.10;99.90;;;;;;5020560;28;19919;-77
2023/12/14 10:20:47;;;;;;;;;;;5.10;99.90;;;;;;5018808;28;20313;-77
2023/12/14 10:23:35;;;;;;;;;;;5.10;99.90;;;;;;5029693;28;19941;-76
2023/12/14 10:26:25;;;;;;;;;;;5.10;99.90;;;;;;5020698;28;19975;-76
2023/12/14 10:29:12;;;;;;;;;;;5.10;99.90;;;;;;5021026;28;20211;-76
2023/12/14 10:31:59;;;;;;;;;;;5.00;99.90;;;;;;5026700;28;19909;-76
2023/12/14 10:34:45;;;;;;;;;;;5.00;99.90;;;;;;5020575;28;19913;-77
2023/12/14 10:37:30;;;;;;;;;;;5.00;99.90;;;;;;5034806;28;19909;-77
2023/12/14 10:40:16;;;;;;;;;;;5.00;99.90;;;;;;5035070;28;19913;-77
2023/12/14 10:43:02;;;;;;;;;;;5.00;99.90;;;;;;5017855;28;20629;-77
2023/12/14 10:45:48;;;;;;;;;;;5.00;99.90;;;;;;5017950;28;19936;-77
2023/12/14 10:48:42;;;;;;;;;;;4.90;99.90;;;;;;5024227;28;20262;-77
2023/12/14 10:51:28;;;;;;;;;;;4.90;99.90;;;;;;5031485;28;19908;-77
2023/12/14 10:54:14;;;;;;;;;;;4.90;99.90;;;;;;5019904;28;19959;-77
2023/12/14 10:57:00;;;;;;;;;;;4.90;99.90;;;;;;5001146;28;19913;-77
2023/12/14 10:59:49;;;;;;;;;;;4.80;99.90;;;;;;5024846;28;19913;-77
2023/12/14 11:02:44;;;;;;;;;;;4.90;99.90;;;;;;5028748;28;19921;-76
2023/12/14 11:05:32;;;;;;;;;;;5.00;99.90;;;;;;5011552;28;19909;-77
2023/12/14 11:08:20;;;;;;;;;;;4.90;99.90;;;;;;5028573;28;19920;-76
2023/12/14 11:11:10;;;;;;;;;;;4.90;99.90;;;;;;5015897;28;19921;-76
2023/12/14 11:13:56;;;;;;;;;;;4.90;99.90;;;;;;4991028;28;19914;-76
2023/12/14 11:16:46;;;;;;;;;;;4.80;99.90;;;;;;5012755;28;19913;-76
2023/12/14 11:19:32;;;;;;;;;;;4.80;99.90;;;;;;5014617;28;19913;-76
2023/12/14 11:22:25;;;;;;;;;;;4.80;99.90;;;;;;5015472;28;19939;-76
2023/12/14 11:25:11;;;;;;;;;;;4.80;99.90;;;;;;5014286;28;19967;-76
2023/12/14 11:27:56;;;;;;;;;;;4.80;99.90;;;;;;4983481;28;20262;-76
2023/12/14 11:30:46;;;;;;;;;;;4.70;99.90;;;;;;4998047;28;19909;-76
2023/12/14 11:33:32;;;;;;;;;;;4.80;99.90;;;;;;5014520;28;20234;-76
2023/12/14 11:36:21;;;;;;;;;;;4.80;99.90;;;;;;5013799;28;20259;-76
2023/12/14 11:39:07;;;;;;;;;;;4.90;99.90;;;;;;5013773;28;20238;-77
2023/12/14 11:42:01;;;;;;;;;;;4.80;99.90;;;;;;5015659;28;19944;-76
2023/12/14 11:44:47;;;;;;;;;;;4.90;99.90;;;;;;5016751;28;19909;-77
2023/12/14 11:47:33;;;;;;;;;;;4.80;99.90;;;;;;5004536;28;19955;-76
2023/12/14 11:50:20;;;;;;;;;;;4.90;99.90;;;;;;5017101;28;19909;-76
2023/12/14 11:53:06;;;;;;;;;;;4.90;99.90;;;;;;5000645;28;20368;-76
2023/12/14 11:55:52;;;;;;;;;;;4.90;99.90;;;;;;5006232;28;19913;-76
2023/12/14 11:58:40;;;;;;;;;;;4.70;99.90;;;;;;5018073;28;19913;-76
2023/12/14 12:01:28;;;;;;;;;;;4.80;99.90;;;;;;5017381;28;20233;-77
2023/12/14 12:04:18;;;;;;;;;;;4.70;99.90;;;;;;5018081;28;19925;-76
2023/12/14 12:07:04;;;;;;;;;;;4.80;99.90;;;;;;4998514;28;19914;-76
2023/12/14 12:09:50;;;;;;;;;;;4.80;99.90;;;;;;4998535;28;19960;-76
2023/12/14 12:12:36;;;;;;;;;;;4.80;99.90;;;;;;4998700;28;19920;-76
2023/12/14 12:15:22;;;;;;;;;;;4.70;99.90;;;;;;5009835;28;19960;-76
2023/12/14 12:18:11;;;;;;;;;;;4.80;99.90;;;;;;4998998;28;19992;-76
2023/12/14 12:21:00;;;;;;;;;;;4.80;99.90;;;;;;5010482;28;20244;-76
2023/12/14 12:23:46;;;;;;;;;;;4.80;99.90;;;;;;5013056;28;19913;-76
2023/12/14 12:26:32;;;;;;;;;;;4.80;99.90;;;;;;5029997;28;19920;-76
2023/12/14 12:29:18;;;;;;;;;;;4.80;99.90;;;;;;4996698;28;19909;-76
2023/12/14 12:32:04;;;;;;;;;;;4.80;99.90;;;;;;5012654;28;20001;-76
2023/12/14 12:34:50;;;;;;;;;;;4.80;99.90;;;;;;4996840;28;19949;-76
2023/12/14 12:37:35;;;;;;;;;;;4.80;99.90;;;;;;4998106;28;20346;-76
2023/12/14 12:40:22;;;;;;;;;;;4.80;99.90;;;;;;5012027;28;20066;-76
2023/12/14 12:43:08;;;;;;;;;;;4.80;99.90;;;;;;5002271;28;19921;-76
2023/12/14 12:45:54;;;;;;;;;;;4.80;99.90;;;;;;5017193;28;20348;-76
2023/12/14 12:48:40;;;;;;;;;;;4.80;99.90;;;;;;5028990;28;19913;-76
2023/12/14 12:51:27;;;;;;;;;;;4.80;99.90;;;;;;5029343;28;20542;-76
2023/12/14 12:54:14;;;;;;;;;;;4.70;99.90;;;;;;5021224;28;19924;-76
2023/12/14 12:57:00;;;;;;;;;;;4.80;99.90;;;;;;5004676;28;19910;-76
2023/12/14 12:59:46;;;;;;;;;;;4.80;99.90;;;;;;5019341;28;19917;-76
2023/12/14 13:02:32;;;;;;;;;;;4.80;99.90;;;;;;5007454;28;19948;-76
2023/12/14 13:05:18;;;;;;;;;;;4.70;99.90;;;;;;5021757;28;20305;-76
2023/12/14 13:08:06;;;;;;;;;;;4.80;99.90;;;;;;5007417;28;19952;-76
2023/12/14 13:10:53;;;;;;;;;;;4.70;99.90;;;;;;5035497;28;19909;-76
2023/12/14 13:13:40;;;;;;;;;;;4.70;99.90;;;;;;5036818;28;19916;-76
2023/12/14 13:16:25;;;;;;;;;;;4.80;99.90;;;;;;5016891;28;19943;-77
2023/12/14 13:19:11;;;;;;;;;;;4.80;99.90;;;;;;5034606;28;19920;-77
2023/12/14 13:21:59;;;;;;;;;;;4.80;99.90;;;;;;5037271;28;19935;-76
2023/12/14 13:24:45;;;;;;;;;;;4.90;99.90;;;;;;5035701;28;19909;-76
2023/12/14 13:27:32;;;;;;;;;;;4.80;99.90;;;;;;5008312;28;20043;-76
2023/12/14 13:30:19;;;;;;;;;;;4.80;99.90;;;;;;5035238;28;19962;-74
2023/12/14 13:33:06;;;;;;;;;;;4.90;99.90;;;;;;5036297;28;19909;-75
2023/12/14 13:35:52;;;;;;;;;;;4.90;99.90;;;;;;5008846;28;19924;-76
2023/12/14 13:38:38;;;;;;;;;;;4.90;99.90;;;;;;4988788;28;19920;-76
2023/12/14 13:41:24;;;;;;;;;;;4.90;99.90;;;;;;5012173;28;20345;-76
2023/12/14 13:44:10;;;;;;;;;;;4.80;99.90;;;;;;5032153;28;19924;-76
2023/12/14 13:46:56;;;;;;;;;;;4.80;99.90;;;;;;5034819;28;19913;-76
2023/12/14 13:49:42;;;;;;;;;;;4.80;99.90;;;;;;5031303;28;20043;-76
2023/12/14 13:52:30;;;;;;;;;;;4.80;99.90;;;;;;5003264;28;19941;-76
2023/12/14 13:55:16;;;;;;;;;;;4.80;99.90;;;;;;5021903;28;20289;-75
2023/12/14 13:58:02;;;;;;;;;;;4.70;99.90;;;;;;5001090;28;19968;-76
2023/12/14 14:00:48;;;;;;;;;;;4.80;99.90;;;;;;5022749;28;19921;-76
2023/12/14 14:03:35;;;;;;;;;;;4.80;99.90;;;;;;5011144;28;20022;-76
2023/12/14 14:06:23;;;;;;;;;;;4.80;99.90;;;;;;5029202;28;19947;-76
2023/12/14 14:09:10;;;;;;;;;;;4.80;99.90;;;;;;5022551;28;19913;-76
2023/12/14 14:11:56;;;;;;;;;;;4.90;99.90;;;;;;5024163;28;20019;-73
2023/12/14 14:14:42;;;;;;;;;;;4.80;99.90;;;;;;5030144;28;19917;-76
2023/12/14 14:17:28;;;;;;;;;;;4.80;99.90;;;;;;5022613;28;20322;-76
2023/12/14 14:20:15;;;;;;;;;;;4.80;99.90;;;;;;5032591;28;20261;-74
2023/12/14 14:23:01;;;;;;;;;;;4.80;99.90;;;;;;5024770;28;20631;-73
2023/12/14 14:25:47;;;;;;;;;;;4.70;99.90;;;;;;5026100;28;19996;-76
2023/12/14 14:28:33;;;;;;;;;;;4.70;99.90;;;;;;5019908;28;19917;-76
2023/12/14 14:31:19;;;;;;;;;;;4.70;99.90;;;;;;4995691;28;19913;-76
2023/12/14 14:34:05;;;;;;;;;;;4.80;99.90;;;;;;5046677;28;20348;-76
2023/12/14 14:36:51;;;;;;;;;;;4.80;99.90;;;;;;5033032;28;19920;-76
2023/12/14 14:39:39;;;;;;;;;;;4.90;99.90;;;;;;5048962;28;19909;-76
2023/12/14 14:42:28;;;;;;;;;;;4.80;99.90;;;;;;5033960;28;19909;-76
2023/12/14 14:45:15;;;;;;;;;;;4.90;99.90;;;;;;5030373;28;19931;-73
2023/12/14 14:48:01;;;;;;;;;;;4.80;99.90;;;;;;5020974;28;19987;-76
2023/12/14 14:50:47;;;;;;;;;;;4.90;99.90;;;;;;5022037;28;19920;-76
2023/12/14 14:53:33;;;;;;;;;;;4.90;99.90;;;;;;5003748;28;19920;-76
2023/12/14 14:56:19;;;;;;;;;;;4.90;99.90;;;;;;5018632;28;20497;-76
2023/12/14 14:59:06;;;;;;;;;;;4.90;99.90;;;;;;5020633;28;19917;-76
2023/12/14 15:01:52;;;;;;;;;;;4.90;99.90;;;;;;5003710;28;19917;-76
2023/12/14 15:04:38;;;;;;;;;;;4.90;99.90;;;;;;5023651;28;20323;-76
2023/12/14 15:07:24;;;;;;;;;;;4.80;99.90;;;;;;5013650;28;19927;-76
2023/12/14 15:10:10;;;;;;;;;;;4.80;99.90;;;;;;5027813;28;19909;-76
2023/12/14 15:12:56;;;;;;;;;;;4.90;99.90;;;;;;5025947;28;20042;-76
2023/12/14 15:15:42;;;;;;;;;;;4.90;99.90;;;;;;5034673;28;19913;-76
2023/12/14 15:18:28;;;;;;;;;;;4.90;99.90;;;;;;5033520;28;19909;-76
2023/12/14 15:21:14;;;;;;;;;;;4.90;99.90;;;;;;5023163;28;19913;-76
2023/12/14 15:24:00;;;;;;;;;;;4.90;99.90;;;;;;5024488;28;19919;-76
2023/12/14 15:26:46;;;;;;;;;;;4.90;99.90;;;;;;5022529;28;19913;-76
2023/12/14 15:29:31;;;;;;;;;;;4.70;99.90;;;;;;5032148;28;20277;-76
2023/12/14 15:32:19;;;;;;;;;;;4.80;99.90;;;;;;5035212;28;19913;-76
2023/12/14 15:35:05;;;;;;;;;;;4.80;99.90;;;;;;5009707;28;19924;-76
2023/12/14 15:37:51;;;;;;;;;;;4.80;99.90;;;;;;5018342;28;19909;-76
2023/12/14 15:40:38;;;;;;;;;;;4.90;99.90;;;;;;5022330;28;19909;-76
2023/12/14 15:43:23;;;;;;;;;;;4.90;99.90;;;;;;5023314;28;19913;-74
2023/12/14 15:46:09;;;;;;;;;;;4.80;99.90;;;;;;5038549;28;19909;-76
2023/12/14 15:48:55;;;;;;;;;;;4.90;99.90;;;;;;5009188;28;20557;-76
2023/12/14 15:51:42;;;;;;;;;;;4.90;99.90;;;;;;5015572;28;19917;-76
2023/12/14 15:54:27;;;;;;;;;;;4.80;99.90;;;;;;5024100;28;19958;-76
2023/12/14 15:57:14;;;;;;;;;;;4.90;99.90;;;;;;5037561;28;19909;-76
2023/12/14 16:00:01;;;;;;;;;;;5.00;99.90;;;;;;4992342;28;19932;-76
2023/12/14 16:02:47;;;;;;;;;;;5.00;99.90;;;;;;5016516;28;20238;-76
2023/12/14 16:05:34;;;;;;;;;;;4.90;99.90;;;;;;5030265;28;19968;-76
2023/12/14 16:08:22;;;;;;;;;;;4.90;99.90;;;;;;5037252;28;20318;-76
2023/12/14 16:11:07;;;;;;;;;;;4.80;99.90;;;;;;5022911;28;20303;-75
2023/12/14 16:13:53;;;;;;;;;;;4.80;99.90;;;;;;5037693;28;19923;-76
2023/12/14 16:16:39;;;;;;;;;;;4.80;99.90;;;;;;5023217;28;19913;-76
2023/12/14 16:19:25;;;;;;;;;;;4.80;99.90;;;;;;5019719;28;19909;-73
2023/12/14 16:22:11;;;;;;;;;;;4.80;99.90;;;;;;4995142;28;19909;-75
2023/12/14 16:24:57;;;;;;;;;;;4.70;99.90;;;;;;5004276;28;19909;-76